createdAt,value
2023-02-11T00:02:33.426Z,4.89
2023-02-11T00:05:37.959Z,4.88
2023-02-11T00:08:42.173Z,4.87
2023-02-11T00:11:46.756Z,4.89
2023-02-11T00:14:51.205Z,4.87
2023-02-11T00:17:55.506Z,4.86
2023-02-11T00:20:59.809Z,4.88
2023-02-11T00:24:04.597Z,4.87
2023-02-11T00:27:10.491Z,4.88
2023-02-11T00:30:15.468Z,4.86
2023-02-11T00:33:19.816Z,4.88
2023-02-11T00:36:27.957Z,4.87
2023-02-11T00:39:32.406Z,4.93
2023-02-11T00:42:37.375Z,4.91
2023-02-11T00:45:41.818Z,4.93
2023-02-11T00:48:46.430Z,4.95
2023-02-11T00:51:50.856Z,4.93
2023-02-11T00:54:55.255Z,4.99
2023-02-11T00:58:00.147Z,4.99
2023-02-11T01:01:05.416Z,5.01
2023-02-11T01:04:10.106Z,4.98
2023-02-11T01:07:14.632Z,5.00
2023-02-11T01:10:19.363Z,5.05
2023-02-11T01:13:25.318Z,5.03
2023-02-11T01:16:30.002Z,5.02
2023-02-11T01:19:34.142Z,5.02
2023-02-11T01:22:39.601Z,5.06
2023-02-11T01:25:44.136Z,5.04
2023-02-11T01:28:48.566Z,5.08
2023-02-11T01:31:52.991Z,5.11
2023-02-11T01:34:57.355Z,5.10
2023-02-11T01:38:01.741Z,5.14
2023-02-11T01:41:11.089Z,5.11
2023-02-11T01:44:40.138Z,5.08
2023-02-11T01:47:44.611Z,5.15
2023-02-11T01:50:54.895Z,5.14
2023-02-11T01:54:19.371Z,5.13
2023-02-11T01:57:26.530Z,5.19
2023-02-11T02:00:41.687Z,5.24
2023-02-11T02:03:48.896Z,5.28
2023-02-11T02:07:02.617Z,5.33
2023-02-11T02:10:17.122Z,5.34
2023-02-11T02:13:22.878Z,5.39
2023-02-11T02:16:35.055Z,5.44
2023-02-11T02:20:31.475Z,5.48
2023-02-11T02:23:50.567Z,5.57
2023-02-11T02:27:04.214Z,5.57
2023-02-11T02:31:18.363Z,5.64
2023-02-11T02:34:35.378Z,5.68
2023-02-11T02:38:07.990Z,5.74
2023-02-11T02:41:17.668Z,5.80
2023-02-11T02:44:22.939Z,5.79
2023-02-11T02:47:27.504Z,5.81
2023-02-11T02:50:36.635Z,5.85
2023-02-11T02:54:06.936Z,5.84
2023-02-11T02:57:47.668Z,5.86
2023-02-11T03:01:38.710Z,5.86
2023-02-11T03:04:53.748Z,5.81
2023-02-11T03:08:27.426Z,5.88
2023-02-11T03:11:32.514Z,5.90
2023-02-11T03:14:38.961Z,5.92
2023-02-11T03:17:47.761Z,5.94
2023-02-11T03:20:54.383Z,5.94
2023-02-11T03:24:05.871Z,5.93
2023-02-11T03:27:25.902Z,5.98
2023-02-11T03:30:52.917Z,5.96
2023-02-11T03:34:23.813Z,5.98
2023-02-11T03:37:39.828Z,6.01
2023-02-11T03:40:45.691Z,6.00
2023-02-11T03:43:55.990Z,6.00
2023-02-11T03:47:02.812Z,5.97
2023-02-11T03:50:10.292Z,5.98
2023-02-11T03:53:15.725Z,6.00
2023-02-11T03:56:26.957Z,5.98
2023-02-11T03:59:31.645Z,5.97
2023-02-11T04:02:38.332Z,5.95
2023-02-11T04:05:42.652Z,5.92
2023-02-11T04:08:46.961Z,5.89
2023-02-11T04:11:51.287Z,5.90
2023-02-11T04:14:55.695Z,5.90
2023-02-11T04:18:00.087Z,5.91
2023-02-11T04:21:05.140Z,5.92
2023-02-11T04:24:09.765Z,5.95
2023-02-11T04:27:14.385Z,5.94
2023-02-11T04:30:19.157Z,5.92
2023-02-11T04:33:24.258Z,5.93
2023-02-11T04:36:28.643Z,5.93
2023-02-11T04:39:33.163Z,5.96
2023-02-11T04:42:37.530Z,5.97
2023-02-11T04:45:41.926Z,5.95
2023-02-11T04:48:46.509Z,5.93
2023-02-11T04:51:50.881Z,5.95
2023-02-11T04:54:55.054Z,5.91
2023-02-11T04:57:59.285Z,5.98
2023-02-11T05:01:13.270Z,5.98
2023-02-11T05:04:18.074Z,5.99
2023-02-11T05:07:22.397Z,5.98
2023-02-11T05:10:27.197Z,6.00
2023-02-11T05:13:32.476Z,5.98
2023-02-11T05:16:37.061Z,6.01
2023-02-11T05:19:42.915Z,6.02
2023-02-11T05:22:47.682Z,6.04
2023-02-11T05:25:52.011Z,6.06
2023-02-11T05:28:57.063Z,6.05
2023-02-11T05:32:01.643Z,6.12
2023-02-11T05:35:06.326Z,6.12
2023-02-11T05:38:10.635Z,6.12
2023-02-11T05:41:15.159Z,6.17
2023-02-11T05:44:19.600Z,6.15
2023-02-11T05:47:24.199Z,6.17
2023-02-11T05:50:28.533Z,6.20
2023-02-11T05:53:32.734Z,6.16
2023-02-11T05:56:37.081Z,6.23
2023-02-11T05:59:41.586Z,6.26
2023-02-11T06:02:46.157Z,6.27
2023-02-11T06:05:50.963Z,6.22
2023-02-11T06:08:56.529Z,6.31
2023-02-11T06:12:00.758Z,6.28
2023-02-11T06:15:07.010Z,6.28
2023-02-11T06:18:11.256Z,6.31
2023-02-11T06:21:16.048Z,6.33
2023-02-11T06:24:38.319Z,6.33
2023-02-11T06:27:45.437Z,6.34
2023-02-11T06:30:49.930Z,6.33
2023-02-11T06:33:55.083Z,6.32
2023-02-11T06:36:59.309Z,6.35
2023-02-11T06:40:04.139Z,6.37
2023-02-11T06:43:08.803Z,6.38
2023-02-11T06:46:13.432Z,6.36
2023-02-11T06:49:17.851Z,6.37
2023-02-11T06:52:22.022Z,6.39
2023-02-11T06:55:27.212Z,6.33
2023-02-11T06:58:32.491Z,6.38
2023-02-11T07:01:36.967Z,6.39
2023-02-11T07:04:41.627Z,6.42
2023-02-11T07:07:46.513Z,6.40
2023-02-11T07:10:51.098Z,6.42
2023-02-11T07:14:04.965Z,6.42
2023-02-11T07:17:09.309Z,6.45
2023-02-11T07:20:14.963Z,6.44
2023-02-11T07:23:19.413Z,6.39
2023-02-11T07:26:25.836Z,6.41
2023-02-11T07:29:30.105Z,6.38
2023-02-11T07:32:34.463Z,6.41
2023-02-11T07:35:41.031Z,6.42
2023-02-11T07:38:47.505Z,6.45
2023-02-11T07:41:52.013Z,6.38
2023-02-11T07:44:56.297Z,6.43
2023-02-11T07:48:00.703Z,6.40
2023-02-11T07:51:10.122Z,6.42
2023-02-11T07:54:14.683Z,6.40
2023-02-11T07:57:19.255Z,6.41
2023-02-11T08:00:23.889Z,6.39
2023-02-11T08:03:28.344Z,6.41
2023-02-11T08:06:35.434Z,6.43
2023-02-11T08:09:39.689Z,6.39
2023-02-11T08:12:44.133Z,6.37
2023-02-11T08:15:48.921Z,6.36
2023-02-11T08:18:57.601Z,6.35
2023-02-11T08:22:02.813Z,6.36
2023-02-11T08:25:07.563Z,6.42
2023-02-11T08:28:11.876Z,6.38
2023-02-11T08:31:25.114Z,6.41
2023-02-11T08:34:29.860Z,6.35
2023-02-11T08:37:34.596Z,6.40
2023-02-11T08:40:39.077Z,6.39
2023-02-11T08:43:45.926Z,6.39
2023-02-11T08:46:51.420Z,6.38
2023-02-11T08:49:55.805Z,6.38
2023-02-11T08:53:00.761Z,6.45
2023-02-11T08:56:06.226Z,6.46
2023-02-11T08:59:15.010Z,6.45
2023-02-11T09:02:19.485Z,6.46
2023-02-11T09:05:24.114Z,6.49
2023-02-11T09:08:28.449Z,6.53
2023-02-11T09:11:35.562Z,6.52
2023-02-11T09:14:41.358Z,6.52
2023-02-11T09:17:45.884Z,6.52
2023-02-11T09:20:50.734Z,6.53
2023-02-11T09:23:55.819Z,6.54
2023-02-11T09:27:00.133Z,6.56
2023-02-11T09:30:05.758Z,6.55
2023-02-11T09:33:10.509Z,6.57
2023-02-11T09:36:22.615Z,6.59
2023-02-11T09:39:27.484Z,6.63
2023-02-11T09:43:08.874Z,6.65
2023-02-11T09:46:20.037Z,6.66
2023-02-11T09:49:48.917Z,6.67
2023-02-11T09:53:27.519Z,6.62
2023-02-11T09:56:32.118Z,6.71
2023-02-11T09:59:36.523Z,6.70
2023-02-11T10:03:25.876Z,6.75
2023-02-11T10:06:30.745Z,6.82
2023-02-11T10:09:53.069Z,6.84
2023-02-11T10:13:51.441Z,6.87
2023-02-11T10:17:14.606Z,6.89
2023-02-11T10:20:31.941Z,6.87
2023-02-11T10:23:45.618Z,6.87
2023-02-11T10:26:52.243Z,6.87
2023-02-11T10:30:16.585Z,6.87
2023-02-11T10:34:00.481Z,6.90
2023-02-11T10:37:04.992Z,6.94
2023-02-11T10:40:22.862Z,6.94
2023-02-11T10:43:30.766Z,7.00
2023-02-11T10:46:40.317Z,7.01
2023-02-11T10:49:46.973Z,7.02
2023-02-11T10:52:51.747Z,7.10
2023-02-11T10:55:59.694Z,7.12
2023-02-11T10:59:19.766Z,7.14
2023-02-11T11:02:34.331Z,7.23
2023-02-11T11:05:50.472Z,7.31
2023-02-11T11:08:55.227Z,7.34
2023-02-11T11:11:59.833Z,7.33
2023-02-11T11:15:10.191Z,7.38
2023-02-11T11:18:22.642Z,7.45
2023-02-11T11:21:44.228Z,7.44
2023-02-11T11:24:54.318Z,7.50
2023-02-11T11:28:03.292Z,7.48
2023-02-11T11:31:31.775Z,7.47
2023-02-11T11:34:52.654Z,7.51
2023-02-11T11:38:05.399Z,7.56
2023-02-11T11:41:59.873Z,7.51
2023-02-11T11:45:25.828Z,7.53
2023-02-11T11:48:40.184Z,7.55
2023-02-11T11:51:58.645Z,7.57
2023-02-11T11:55:26.638Z,7.49
2023-02-11T11:58:33.091Z,7.53
2023-02-11T12:02:52.056Z,7.51
2023-02-11T12:06:20.256Z,7.56
2023-02-11T12:09:45.728Z,7.58
2023-02-11T12:12:56.191Z,7.63
2023-02-11T12:16:13.955Z,7.61
2023-02-11T12:20:01.391Z,7.55
2023-02-11T12:23:48.123Z,7.64
2023-02-11T12:27:10.578Z,7.61
2023-02-11T12:30:33.526Z,7.72
2023-02-11T12:34:15.035Z,7.72
2023-02-11T12:37:44.356Z,7.75
2023-02-11T12:41:14.630Z,7.74
2023-02-11T12:44:52.282Z,7.75
2023-02-11T12:48:34.099Z,7.78
2023-02-11T12:51:47.139Z,7.84
2023-02-11T12:55:25.850Z,7.81
2023-02-11T12:58:44.552Z,7.78
2023-02-11T13:01:51.910Z,7.83
2023-02-11T13:05:05.520Z,7.80
2023-02-11T13:08:30.697Z,7.85
2023-02-11T13:11:51.853Z,7.76
2023-02-11T13:15:03.779Z,7.76
2023-02-11T13:18:32.406Z,7.69
2023-02-11T13:22:19.289Z,7.62
2023-02-11T13:25:57.183Z,7.54
2023-02-11T13:29:53.477Z,7.55
2023-02-11T13:32:58.032Z,7.53
2023-02-11T13:36:04.541Z,7.54
2023-02-11T13:39:21.277Z,7.52
2023-02-11T13:42:27.136Z,7.51
2023-02-11T13:45:40.342Z,7.56
2023-02-11T13:48:53.770Z,7.54
2023-02-11T13:52:02.786Z,7.49
2023-02-11T13:55:23.324Z,7.46
2023-02-11T13:58:27.911Z,7.42
2023-02-11T14:02:06.041Z,7.36
2023-02-11T14:05:45.371Z,7.35
2023-02-11T14:09:14.228Z,7.36
2023-02-11T14:12:34.264Z,7.35
2023-02-11T14:15:40.424Z,7.33
2023-02-11T14:18:45.081Z,7.31
2023-02-11T14:21:50.137Z,7.27
2023-02-11T14:25:00.924Z,7.26
2023-02-11T14:28:25.896Z,7.28
2023-02-11T14:32:06.136Z,7.22
2023-02-11T14:35:47.899Z,7.21
2023-02-11T14:39:25.330Z,7.17
2023-02-11T14:42:31.354Z,7.20
2023-02-11T14:45:38.013Z,7.18
2023-02-11T14:48:52.299Z,7.10
2023-02-11T14:52:06.197Z,7.11
2023-02-11T14:55:38.123Z,7.08
2023-02-11T14:58:51.999Z,7.12
2023-02-11T15:01:56.225Z,7.09
2023-02-11T15:05:26.142Z,7.09
2023-02-11T15:08:34.569Z,7.08
2023-02-11T15:11:43.228Z,7.09
2023-02-11T15:14:55.264Z,7.09
2023-02-11T15:18:03.430Z,7.04
2023-02-11T15:21:08.332Z,7.02
2023-02-11T15:24:31.768Z,7.01
2023-02-11T15:27:57.883Z,7.00
2023-02-11T15:31:16.203Z,6.93
2023-02-11T15:34:20.979Z,6.94
2023-02-11T15:37:32.119Z,6.92
2023-02-11T15:40:37.893Z,6.90
2023-02-11T15:43:53.025Z,6.87
2023-02-11T15:46:57.515Z,6.83
2023-02-11T15:50:02.444Z,6.85
2023-02-11T15:53:21.982Z,6.83
2023-02-11T15:56:43.583Z,6.82
2023-02-11T15:59:53.044Z,6.80
2023-02-11T16:02:57.517Z,6.75
2023-02-11T16:06:26.442Z,6.73
2023-02-11T16:09:35.118Z,6.69
2023-02-11T16:12:39.677Z,6.69
2023-02-11T16:15:57.259Z,6.69
2023-02-11T16:19:06.237Z,6.68
2023-02-11T16:22:20.382Z,6.65
2023-02-11T16:25:25.068Z,6.63
2023-02-11T16:28:29.763Z,6.65
2023-02-11T16:31:37.773Z,6.62
2023-02-11T16:34:42.692Z,6.68
2023-02-11T16:37:47.225Z,6.65
2023-02-11T16:40:51.875Z,6.70
2023-02-11T16:43:59.296Z,6.71
2023-02-11T16:47:06.855Z,6.69
2023-02-11T16:50:22.244Z,6.69
2023-02-11T16:53:26.670Z,6.70
2023-02-11T16:56:31.103Z,6.71
2023-02-11T16:59:35.115Z,6.75
2023-02-11T17:02:39.918Z,6.67
2023-02-11T17:05:58.320Z,6.72
2023-02-11T17:09:03.880Z,6.67
2023-02-11T17:12:08.459Z,6.69
2023-02-11T17:15:12.568Z,6.62
2023-02-11T17:18:16.946Z,6.55
2023-02-11T17:21:21.536Z,6.55
2023-02-11T17:24:26.235Z,6.48
2023-02-11T17:27:30.400Z,6.50
2023-02-11T17:30:35.398Z,6.51
2023-02-11T17:33:39.804Z,6.47
2023-02-11T17:36:44.803Z,6.44
2023-02-11T17:39:50.976Z,6.43
2023-02-11T17:42:55.427Z,6.42
2023-02-11T17:45:59.794Z,6.40
2023-02-11T17:49:04.994Z,6.40
2023-02-11T17:52:09.730Z,6.39
2023-02-11T17:55:14.686Z,6.39
2023-02-11T17:58:19.044Z,6.38
2023-02-11T18:01:26.645Z,6.34
2023-02-11T18:04:31.726Z,6.33
2023-02-11T18:07:36.260Z,6.33
2023-02-11T18:10:43.527Z,6.30
2023-02-11T18:13:54.273Z,6.31
2023-02-11T18:16:58.977Z,6.30
2023-02-11T18:20:04.885Z,6.28
2023-02-11T18:23:10.648Z,6.34
2023-02-11T18:26:17.917Z,6.31
2023-02-11T18:29:22.344Z,6.35
2023-02-11T18:32:27.119Z,6.37
2023-02-11T18:35:31.517Z,6.38
2023-02-11T18:38:36.167Z,6.37
2023-02-11T18:41:42.285Z,6.36
2023-02-11T18:44:46.317Z,6.45
2023-02-11T18:47:50.505Z,6.45
2023-02-11T18:50:55.766Z,6.43
2023-02-11T18:54:02.713Z,6.47
2023-02-11T18:57:07.652Z,6.47
2023-02-11T19:00:12.983Z,6.55
2023-02-11T19:03:17.821Z,6.51
2023-02-11T19:06:26.123Z,6.54
2023-02-11T19:09:30.896Z,6.59
2023-02-11T19:12:35.262Z,6.58
2023-02-11T19:15:44.856Z,6.56
2023-02-11T19:18:49.477Z,6.54
2023-02-11T19:21:55.430Z,6.55
2023-02-11T19:24:59.801Z,6.57
2023-02-11T19:28:04.183Z,6.61
2023-02-11T19:31:09.508Z,6.61
2023-02-11T19:34:16.774Z,6.60
2023-02-11T19:37:21.361Z,6.61
2023-02-11T19:40:25.954Z,6.65
2023-02-11T19:43:31.119Z,6.60
2023-02-11T19:46:40.661Z,6.64
2023-02-11T19:49:45.438Z,6.59
2023-02-11T19:52:49.598Z,6.58
2023-02-11T19:55:54.106Z,6.59
2023-02-11T19:59:01.995Z,6.56
2023-02-11T20:02:06.661Z,6.57
2023-02-11T20:05:11.139Z,6.56
2023-02-11T20:08:17.124Z,6.56
2023-02-11T20:11:22.673Z,6.58
2023-02-11T20:14:28.166Z,6.61
2023-02-11T20:17:32.700Z,6.55
2023-02-11T20:20:38.726Z,6.51
2023-02-11T20:23:44.867Z,6.54
2023-02-11T20:26:51.688Z,6.54
2023-02-11T20:29:56.102Z,6.52
2023-02-11T20:33:00.647Z,6.50
2023-02-11T20:36:13.856Z,6.48
2023-02-11T20:39:19.290Z,6.46
2023-02-11T20:42:24.107Z,6.45
2023-02-11T20:45:28.553Z,6.39
2023-02-11T20:48:34.087Z,6.47
2023-02-11T20:51:38.597Z,6.42
2023-02-11T20:54:43.072Z,6.41
2023-02-11T20:57:47.855Z,6.39
2023-02-11T21:00:52.569Z,6.42
2023-02-11T21:04:02.415Z,6.40
2023-02-11T21:07:06.992Z,6.38
2023-02-11T21:10:12.184Z,6.41
2023-02-11T21:13:16.858Z,6.40
2023-02-11T21:16:21.540Z,6.42
2023-02-11T21:19:26.431Z,6.36
2023-02-11T21:22:31.400Z,6.38
2023-02-11T21:25:35.943Z,6.35
2023-02-11T21:28:41.241Z,6.32
2023-02-11T21:31:46.262Z,6.35
2023-02-11T21:34:50.880Z,6.38
2023-02-11T21:37:55.184Z,6.40
2023-02-11T21:41:05.250Z,6.35
2023-02-11T21:44:09.797Z,6.45
2023-02-11T21:47:14.351Z,6.41
2023-02-11T21:50:19.211Z,6.42
2023-02-11T21:53:23.616Z,6.41
2023-02-11T21:56:30.067Z,6.44
2023-02-11T21:59:34.326Z,6.37
2023-02-11T22:02:39.193Z,6.48
2023-02-11T22:05:43.952Z,6.46
2023-02-11T22:08:50.066Z,6.36
2023-02-11T22:11:54.722Z,6.43
2023-02-11T22:14:58.831Z,6.47
2023-02-11T22:18:03.242Z,6.40
2023-02-11T22:21:12.622Z,6.43
2023-02-11T22:24:17.054Z,6.37
2023-02-11T22:27:21.921Z,6.44
2023-02-11T22:30:26.322Z,6.39
2023-02-11T22:33:31.140Z,6.40
2023-02-11T22:36:40.056Z,6.43
2023-02-11T22:39:44.950Z,6.44
2023-02-11T22:42:49.245Z,6.45
2023-02-11T22:45:56.460Z,6.41
2023-02-11T22:49:01.207Z,6.36
2023-02-11T22:52:05.455Z,6.38
2023-02-11T22:55:09.880Z,6.44
2023-02-11T22:58:14.192Z,6.38
2023-02-11T23:01:19.519Z,6.39
2023-02-11T23:04:23.886Z,6.39
2023-02-11T23:07:28.257Z,6.35
2023-02-11T23:10:36.306Z,6.33
2023-02-11T23:13:43.237Z,6.43
2023-02-11T23:16:51.163Z,6.44
2023-02-11T23:19:56.041Z,6.45
2023-02-11T23:23:00.499Z,6.39
2023-02-11T23:26:08.563Z,6.43
2023-02-11T23:29:13.334Z,6.41
2023-02-11T23:32:18.997Z,6.45
2023-02-11T23:35:24.402Z,6.44
2023-02-11T23:38:29.050Z,6.44
2023-02-11T23:41:33.589Z,6.44
2023-02-11T23:44:38.198Z,6.47
2023-02-11T23:47:42.568Z,6.49
2023-02-11T23:50:47.177Z,6.46
2023-02-11T23:53:52.888Z,6.46
2023-02-11T23:56:57.661Z,6.47
